Time;durP1;ratioP1;P1;durP2;ratioP2;P2;SDS_P1;SDS_P2;PMS_P1;PMS_P2;Temp;Humidity;BMP_temperature;BMP_pressure;BME280_temperature;BME280_humidity;BME280_pressure;Samples;Min_cycle;Max_cycle;Signal;HPM_P1;HPM_P2
2021/01/30 00:01:13;;;;;;;40.15;23.92;;;;;;;;;;5036277;28;20204;-62
2021/01/30 00:03:40;;;;;;;40.50;23.85;;;;;;;;;;5036008;28;20283;-63
2021/01/30 00:06:06;;;;;;;39.05;23.63;;;;;;;;;;5037366;28;20189;-64
2021/01/30 00:08:32;;;;;;;40.60;25.30;;;;;;;;;;5036223;28;20308;-60
2021/01/30 00:10:59;;;;;;;40.83;24.88;;;;;;;;;;5037268;28;20208;-62
2021/01/30 00:13:26;;;;;;;39.88;24.92;;;;;;;;;;5037752;28;20239;-61
2021/01/30 00:15:52;;;;;;;44.08;24.65;;;;;;;;;;5037887;28;20189;-62
2021/01/30 00:18:18;;;;;;;40.38;25.75;;;;;;;;;;5037791;28;20676;-62
2021/01/30 00:20:44;;;;;;;39.13;24.85;;;;;;;;;;5036279;28;20204;-63
2021/01/30 00:23:10;;;;;;;41.72;25.30;;;;;;;;;;5036157;28;20216;-61
2021/01/30 00:25:40;;;;;;;42.42;26.38;;;;;;;;;;5035860;28;20193;-60
2021/01/30 00:28:07;;;;;;;41.88;24.00;;;;;;;;;;5035592;28;20276;-62
2021/01/30 00:30:33;;;;;;;38.30;23.45;;;;;;;;;;5032462;28;20262;-63
2021/01/30 00:33:01;;;;;;;39.53;24.38;;;;;;;;;;5031734;28;20197;-62
2021/01/30 00:35:28;;;;;;;41.95;24.92;;;;;;;;;;5031584;28;20267;-63
2021/01/30 00:37:54;;;;;;;38.75;22.85;;;;;;;;;;5031923;28;20235;-60
2021/01/30 00:40:21;;;;;;;35.95;23.35;;;;;;;;;;5031527;28;20201;-60
2021/01/30 00:42:47;;;;;;;38.63;23.42;;;;;;;;;;5031028;28;20190;-62
2021/01/30 00:45:15;;;;;;;45.78;27.15;;;;;;;;;;5030811;28;20201;-62
2021/01/30 00:47:41;;;;;;;55.42;32.20;;;;;;;;;;5031817;28;20235;-63
2021/01/30 00:50:08;;;;;;;79.20;41.90;;;;;;;;;;5029776;28;20723;-63
2021/01/30 00:52:36;;;;;;;95.32;49.53;;;;;;;;;;5031441;28;20209;-62
2021/01/30 00:55:17;;;;;;;121.72;60.38;;;;;;;;;;5063265;28;20667;-61
2021/01/30 00:57:44;;;;;;;120.75;60.75;;;;;;;;;;5031427;28;20213;-61
2021/01/30 01:00:15;;;;;;;132.77;67.30;;;;;;;;;;5030977;28;20663;-63
2021/01/30 01:02:41;;;;;;;144.48;70.68;;;;;;;;;;5031311;28;20197;-64
2021/01/30 01:05:08;;;;;;;147.77;73.40;;;;;;;;;;5029632;28;20229;-61
2021/01/30 01:07:34;;;;;;;141.13;72.40;;;;;;;;;;5031399;28;20203;-62
2021/01/30 01:10:01;;;;;;;136.68;68.63;;;;;;;;;;5030743;28;20276;-63
2021/01/30 01:12:28;;;;;;;118.72;62.53;;;;;;;;;;5031369;28;20212;-63
2021/01/30 01:14:54;;;;;;;109.18;57.13;;;;;;;;;;5030974;28;20205;-66
2021/01/30 01:17:20;;;;;;;105.57;54.20;;;;;;;;;;5031257;28;20233;-62
2021/01/30 01:19:46;;;;;;;88.82;50.15;;;;;;;;;;5030602;28;20193;-64
2021/01/30 01:22:13;;;;;;;88.88;48.40;;;;;;;;;;5031309;28;20676;-62
2021/01/30 01:24:39;;;;;;;82.70;46.15;;;;;;;;;;5030735;28;20193;-62
2021/01/30 01:27:05;;;;;;;86.68;46.97;;;;;;;;;;5031631;28;20564;-61
2021/01/30 01:29:31;;;;;;;76.38;42.45;;;;;;;;;;5030196;28;20189;-62
2021/01/30 01:31:57;;;;;;;82.53;46.67;;;;;;;;;;5030922;28;20686;-63
2021/01/30 01:34:26;;;;;;;78.47;44.10;;;;;;;;;;5030268;28;20221;-63
2021/01/30 01:36:53;;;;;;;77.35;44.28;;;;;;;;;;5030706;28;20247;-64
2021/01/30 01:39:20;;;;;;;75.15;43.85;;;;;;;;;;5030673;28;20306;-63
2021/01/30 01:41:50;;;;;;;72.85;43.38;;;;;;;;;;5030237;28;20295;-62
2021/01/30 01:44:16;;;;;;;69.45;42.95;;;;;;;;;;5030746;28;20207;-61
2021/01/30 01:46:43;;;;;;;68.70;43.42;;;;;;;;;;5030007;28;20826;-62
2021/01/30 01:49:14;;;;;;;69.38;42.22;;;;;;;;;;5032496;28;20189;-60
2021/01/30 01:51:43;;;;;;;73.82;43.55;;;;;;;;;;5031005;28;20201;-62
2021/01/30 01:54:13;;;;;;;75.38;44.42;;;;;;;;;;5030147;28;20603;-63
2021/01/30 01:56:40;;;;;;;72.40;41.38;;;;;;;;;;5030338;28;20197;-63
2021/01/30 01:59:11;;;;;;;72.57;42.92;;;;;;;;;;5030303;28;20220;-63
2021/01/30 02:01:38;;;;;;;65.93;40.05;;;;;;;;;;5029506;28;20280;-64
2021/01/30 02:04:07;;;;;;;74.72;41.92;;;;;;;;;;5030030;28;20226;-62
2021/01/30 02:06:35;;;;;;;65.15;38.72;;;;;;;;;;5029671;28;20231;-64
2021/01/30 02:09:01;;;;;;;60.22;36.80;;;;;;;;;;5030217;28;20201;-62
2021/01/30 02:11:27;;;;;;;56.90;33.72;;;;;;;;;;5029425;28;20613;-63
2021/01/30 02:13:55;;;;;;;50.97;31.17;;;;;;;;;;5030196;28;20207;-63
2021/01/30 02:16:40;;;;;;;57.17;32.13;;;;;;;;;;5029685;28;20192;-65
2021/01/30 02:19:26;;;;;;;52.03;31.75;;;;;;;;;;5030272;28;20255;-62
2021/01/30 02:22:11;;;;;;;50.80;30.33;;;;;;;;;;5029772;28;20212;-63
2021/01/30 02:24:56;;;;;;;45.80;28.50;;;;;;;;;;5029438;28;20611;-63
2021/01/30 02:27:44;;;;;;;40.85;24.92;;;;;;;;;;5029923;28;20271;-63
2021/01/30 02:30:13;;;;;;;43.78;26.02;;;;;;;;;;5029001;28;20193;-61
2021/01/30 02:32:58;;;;;;;34.47;21.35;;;;;;;;;;5029977;28;20221;-62
2021/01/30 02:35:48;;;;;;;28.95;18.58;;;;;;;;;;5029209;28;20619;-64
2021/01/30 02:38:22;;;;;;;30.95;18.60;;;;;;;;;;5037587;28;20618;-64
2021/01/30 02:40:50;;;;;;;27.67;17.83;;;;;;;;;;5029463;28;20264;-64
2021/01/30 02:43:19;;;;;;;28.48;17.70;;;;;;;;;;5029414;28;20200;-62
2021/01/30 02:45:47;;;;;;;26.35;17.50;;;;;;;;;;5028965;28;20279;-62
2021/01/30 02:48:22;;;;;;;25.58;16.23;;;;;;;;;;5029739;28;20184;-61
2021/01/30 02:50:50;;;;;;;60.92;28.30;;;;;;;;;;5029055;28;20195;-63
2021/01/30 02:53:22;;;;;;;26.88;16.30;;;;;;;;;;5029397;28;20194;-63
2021/01/30 02:55:51;;;;;;;23.50;15.30;;;;;;;;;;5029096;28;20735;-59
2021/01/30 02:58:18;;;;;;;23.70;14.88;;;;;;;;;;5029409;28;20656;-62
2021/01/30 03:00:46;;;;;;;26.13;16.25;;;;;;;;;;5029460;28;20201;-61
2021/01/30 03:03:12;;;;;;;25.42;16.10;;;;;;;;;;5029114;28;20192;-62
2021/01/30 03:05:38;;;;;;;29.77;17.30;;;;;;;;;;5029520;28;20197;-65
2021/01/30 03:08:08;;;;;;;26.35;16.33;;;;;;;;;;5035447;28;20260;-60
2021/01/30 03:10:57;;;;;;;24.75;15.30;;;;;;;;;;5035413;28;20193;-61
2021/01/30 03:13:31;;;;;;;22.90;15.05;;;;;;;;;;5036002;28;20610;-62
2021/01/30 03:16:08;;;;;;;21.77;15.30;;;;;;;;;;5035755;28;20300;-63
2021/01/30 03:18:38;;;;;;;22.85;15.35;;;;;;;;;;5035929;28;20216;-62
2021/01/30 03:21:07;;;;;;;21.02;15.18;;;;;;;;;;5037589;28;20608;-62
2021/01/30 03:23:34;;;;;;;22.50;15.48;;;;;;;;;;5037129;28;20292;-63
2021/01/30 03:26:02;;;;;;;23.58;14.60;;;;;;;;;;5035488;28;20185;-62
2021/01/30 03:28:28;;;;;;;22.35;15.35;;;;;;;;;;5036048;28;20213;-61
2021/01/30 03:30:56;;;;;;;21.15;14.70;;;;;;;;;;5035213;28;20201;-62
2021/01/30 03:33:22;;;;;;;25.58;16.77;;;;;;;;;;5035888;28;20595;-64
2021/01/30 03:35:48;;;;;;;29.17;18.02;;;;;;;;;;5035167;28;20240;-65
2021/01/30 03:38:14;;;;;;;26.40;17.25;;;;;;;;;;5035359;28;20236;-61
2021/01/30 03:40:43;;;;;;;31.33;19.70;;;;;;;;;;5035070;28;20181;-62
2021/01/30 03:43:09;;;;;;;33.45;21.00;;;;;;;;;;5035553;28;20301;-63
2021/01/30 03:45:35;;;;;;;36.75;23.58;;;;;;;;;;5035123;28;20201;-62
2021/01/30 03:48:03;;;;;;;40.33;26.30;;;;;;;;;;5036060;28;20216;-65
2021/01/30 03:50:29;;;;;;;44.95;27.90;;;;;;;;;;5035081;28;20279;-62
2021/01/30 03:52:57;;;;;;;48.25;30.33;;;;;;;;;;5034322;28;20225;-61
2021/01/30 03:55:23;;;;;;;50.15;31.13;;;;;;;;;;5035202;28;20197;-64
2021/01/30 03:57:50;;;;;;;49.45;31.65;;;;;;;;;;5035453;28;20689;-63
2021/01/30 04:00:18;;;;;;;53.70;33.38;;;;;;;;;;5034967;28;20690;-63
2021/01/30 04:02:44;;;;;;;56.83;34.78;;;;;;;;;;5035865;28;20668;-61
2021/01/30 04:05:14;;;;;;;58.97;34.47;;;;;;;;;;5036844;28;20294;-61
2021/01/30 04:07:42;;;;;;;61.67;37.35;;;;;;;;;;5037294;28;20276;-62
2021/01/30 04:10:10;;;;;;;59.28;36.00;;;;;;;;;;5036918;28;20204;-65
2021/01/30 04:12:38;;;;;;;67.95;38.38;;;;;;;;;;5035430;28;20267;-62
2021/01/30 04:15:05;;;;;;;63.03;36.47;;;;;;;;;;5035078;28;20284;-61
2021/01/30 04:17:31;;;;;;;63.13;37.22;;;;;;;;;;5034720;28;20254;-61
2021/01/30 04:19:58;;;;;;;68.15;41.30;;;;;;;;;;5031855;28;20205;-61
2021/01/30 04:22:24;;;;;;;72.40;42.08;;;;;;;;;;5032419;28;20208;-62
2021/01/30 04:24:50;;;;;;;62.15;36.63;;;;;;;;;;5031649;28;20209;-63
2021/01/30 04:27:17;;;;;;;64.57;38.08;;;;;;;;;;5032135;28;20212;-65
2021/01/30 04:29:43;;;;;;;63.90;39.55;;;;;;;;;;5031717;28;20212;-64
2021/01/30 04:32:10;;;;;;;68.45;41.08;;;;;;;;;;5032038;28;20670;-64
2021/01/30 04:34:36;;;;;;;67.07;40.00;;;;;;;;;;5031664;28;20200;-64
2021/01/30 04:37:03;;;;;;;68.70;41.22;;;;;;;;;;5031734;28;20236;-62
2021/01/30 04:39:29;;;;;;;71.95;43.50;;;;;;;;;;5031322;28;20400;-64
2021/01/30 04:42:19;;;;;;;83.75;48.78;;;;;;;;;;5031954;28;20220;-64
2021/01/30 04:45:08;;;;;;;73.72;45.13;;;;;;;;;;5031199;28;20200;-65
2021/01/30 04:47:46;;;;;;;86.95;51.20;;;;;;;;;;5032008;28;20201;-63
2021/01/30 04:50:12;;;;;;;76.07;45.65;;;;;;;;;;5032064;28;20197;-62
2021/01/30 04:52:44;;;;;;;75.45;45.78;;;;;;;;;;5033208;28;20200;-64
2021/01/30 04:55:31;;;;;;;69.20;41.42;;;;;;;;;;5032525;28;20209;-61
2021/01/30 04:58:05;;;;;;;69.78;42.22;;;;;;;;;;5031361;28;20224;-64
2021/01/30 05:00:36;;;;;;;65.32;40.17;;;;;;;;;;5033680;28;20208;-64
2021/01/30 05:03:08;;;;;;;64.35;39.28;;;;;;;;;;5051363;28;20295;-61
2021/01/30 05:05:36;;;;;;;66.32;41.17;;;;;;;;;;5051090;28;20212;-63
2021/01/30 05:08:06;;;;;;;66.88;40.00;;;;;;;;;;5051339;28;20199;-64
2021/01/30 05:10:39;;;;;;;66.65;39.97;;;;;;;;;;5050601;28;20187;-63
2021/01/30 05:13:23;;;;;;;609.50;244.73;;;;;;;;;;5051144;28;20200;-66
2021/01/30 05:15:51;;;;;;;83.00;46.88;;;;;;;;;;5050224;28;20204;-62
2021/01/30 05:18:22;;;;;;;69.65;42.17;;;;;;;;;;5051293;28;20229;-63
2021/01/30 05:21:10;;;;;;;70.60;44.95;;;;;;;;;;5050623;28;20189;-64
2021/01/30 05:23:37;;;;;;;70.10;44.17;;;;;;;;;;5049388;28;20612;-61
2021/01/30 05:26:03;;;;;;;70.82;43.45;;;;;;;;;;5050237;28;20188;-62
2021/01/30 05:28:32;;;;;;;70.75;41.22;;;;;;;;;;5051033;28;20213;-63
2021/01/30 05:31:07;;;;;;;65.25;40.33;;;;;;;;;;5049234;28;20200;-63
2021/01/30 05:33:33;;;;;;;65.93;39.53;;;;;;;;;;5050454;28;20200;-64
2021/01/30 05:36:03;;;;;;;60.38;38.70;;;;;;;;;;5049740;28;20228;-64
2021/01/30 05:38:47;;;;;;;65.55;41.30;;;;;;;;;;5049548;28;20314;-65
2021/01/30 05:41:34;;;;;;;61.67;38.13;;;;;;;;;;5048956;28;20183;-64
2021/01/30 05:44:03;;;;;;;59.60;37.35;;;;;;;;;;5046180;28;20203;-64
2021/01/30 05:46:30;;;;;;;59.90;36.92;;;;;;;;;;5050138;28;20222;-63
2021/01/30 05:48:59;;;;;;;61.17;38.33;;;;;;;;;;5050726;28;20298;-65
2021/01/30 05:51:25;;;;;;;62.22;39.38;;;;;;;;;;5050728;28;20201;-66
2021/01/30 05:53:51;;;;;;;59.47;37.03;;;;;;;;;;5050282;28;20203;-67
2021/01/30 05:56:18;;;;;;;61.25;37.20;;;;;;;;;;5050227;28;20208;-61
2021/01/30 05:58:45;;;;;;;68.30;40.50;;;;;;;;;;5050416;28;20710;-65
2021/01/30 06:01:25;;;;;;;62.63;36.90;;;;;;;;;;5050112;28;20172;-63
2021/01/30 06:03:56;;;;;;;57.08;34.08;;;;;;;;;;5050239;28;20203;-64
2021/01/30 06:06:23;;;;;;;51.90;33.28;;;;;;;;;;5049558;28;20236;-63
2021/01/30 06:08:54;;;;;;;50.28;31.00;;;;;;;;;;5050548;28;20188;-64
2021/01/30 06:11:20;;;;;;;47.20;29.27;;;;;;;;;;5049528;28;20196;-64
2021/01/30 06:14:00;;;;;;;45.08;29.38;;;;;;;;;;5049997;28;20897;-63
2021/01/30 06:16:37;;;;;;;41.85;26.20;;;;;;;;;;5049778;28;20262;-66
2021/01/30 06:19:23;;;;;;;37.63;23.73;;;;;;;;;;5049825;28;20227;-64
2021/01/30 06:22:10;;;;;;;37.50;24.42;;;;;;;;;;5049698;28;20192;-64
2021/01/30 06:24:44;;;;;;;35.45;21.20;;;;;;;;;;5049336;28;20600;-61
2021/01/30 06:27:22;;;;;;;30.30;19.48;;;;;;;;;;5050207;28;20242;-61
2021/01/30 06:29:50;;;;;;;26.77;17.60;;;;;;;;;;5049505;28;20196;-64
2021/01/30 06:32:19;;;;;;;25.88;16.05;;;;;;;;;;5049577;28;20199;-62
2021/01/30 06:34:46;;;;;;;21.02;13.73;;;;;;;;;;5037525;28;20680;-66
2021/01/30 06:37:26;;;;;;;18.52;13.05;;;;;;;;;;5038869;28;20247;-62
2021/01/30 06:40:02;;;;;;;21.58;14.05;;;;;;;;;;5038755;28;20224;-63
2021/01/30 06:42:30;;;;;;;20.25;13.15;;;;;;;;;;5037616;28;20689;-63
2021/01/30 06:45:00;;;;;;;19.67;12.32;;;;;;;;;;5036740;28;20693;-64
2021/01/30 06:47:26;;;;;;;19.17;12.65;;;;;;;;;;5048178;28;20185;-63
2021/01/30 06:49:54;;;;;;;23.13;13.10;;;;;;;;;;5047423;28;20235;-62
2021/01/30 06:52:21;;;;;;;15.07;10.15;;;;;;;;;;5047980;28;20204;-62
2021/01/30 06:54:47;;;;;;;16.42;10.23;;;;;;;;;;5037761;28;20197;-63
2021/01/30 06:57:23;;;;;;;13.60;8.52;;;;;;;;;;5039041;28;20193;-63
2021/01/30 06:59:52;;;;;;;13.05;8.98;;;;;;;;;;5037999;28;20224;-62
2021/01/30 07:02:20;;;;;;;13.23;8.40;;;;;;;;;;5034418;28;20193;-63
2021/01/30 07:04:59;;;;;;;12.80;8.63;;;;;;;;;;5031211;28;21014;-62
2021/01/30 07:07:27;;;;;;;12.15;8.18;;;;;;;;;;5039311;28;20283;-62
2021/01/30 07:09:53;;;;;;;13.57;9.23;;;;;;;;;;5035899;28;20185;-64
2021/01/30 07:12:25;;;;;;;16.05;8.13;;;;;;;;;;5037387;28;20218;-64
2021/01/30 07:14:52;;;;;;;13.90;9.85;;;;;;;;;;5045809;28;20216;-64
2021/01/30 07:17:30;;;;;;;18.08;10.35;;;;;;;;;;5047186;28;20726;-65
2021/01/30 07:20:00;;;;;;;15.40;9.93;;;;;;;;;;5046343;28;20234;-62
2021/01/30 07:22:29;;;;;;;13.77;9.52;;;;;;;;;;5048984;28;20200;-65
2021/01/30 07:24:56;;;;;;;13.55;9.23;;;;;;;;;;5048456;28;20181;-62
2021/01/30 07:27:24;;;;;;;14.05;7.72;;;;;;;;;;5049190;28;20204;-62
2021/01/30 07:29:50;;;;;;;10.52;6.95;;;;;;;;;;5048619;28;20192;-64
2021/01/30 07:32:20;;;;;;;13.60;7.10;;;;;;;;;;5048527;28;20224;-62
2021/01/30 07:34:56;;;;;;;104.10;52.85;;;;;;;;;;5048718;28;20211;-62
2021/01/30 07:37:31;;;;;;;9.95;6.32;;;;;;;;;;5047414;28;20228;-64
2021/01/30 07:40:00;;;;;;;7.68;4.97;;;;;;;;;;5047676;28;20216;-63
2021/01/30 07:42:34;;;;;;;8.88;5.75;;;;;;;;;;5049448;28;20189;-62
2021/01/30 07:45:05;;;;;;;7.78;4.38;;;;;;;;;;5048375;28;20199;-63
2021/01/30 07:47:44;;;;;;;6.22;4.20;;;;;;;;;;5048900;28;20205;-60
2021/01/30 07:50:14;;;;;;;7.53;4.80;;;;;;;;;;5048349;28;20276;-64
2021/01/30 07:52:53;;;;;;;6.78;4.00;;;;;;;;;;5049230;28;20184;-64
2021/01/30 07:55:19;;;;;;;6.93;3.83;;;;;;;;;;5038367;28;20197;-65
2021/01/30 07:58:02;;;;;;;7.03;4.40;;;;;;;;;;5042263;28;20231;-63
2021/01/30 08:00:34;;;;;;;4.55;3.30;;;;;;;;;;5049727;28;20204;-66
2021/01/30 08:03:26;;;;;;;6.28;3.92;;;;;;;;;;5051720;28;20288;-67
2021/01/30 08:05:56;;;;;;;6.03;3.78;;;;;;;;;;5044057;28;20196;-66
2021/01/30 08:08:29;;;;;;;6.72;3.88;;;;;;;;;;5051858;28;20177;-65
2021/01/30 08:10:57;;;;;;;6.57;4.20;;;;;;;;;;5051590;28;20192;-65
2021/01/30 08:13:27;;;;;;;6.53;3.42;;;;;;;;;;5051996;28;20196;-64
2021/01/30 08:15:59;;;;;;;6.40;3.60;;;;;;;;;;5051398;28;20181;-63
2021/01/30 08:18:34;;;;;;;46.42;29.00;;;;;;;;;;5051906;28;20587;-64
2021/01/30 08:21:26;;;;;;;56.10;35.10;;;;;;;;;;5051261;28;20208;-64
2021/01/30 08:23:53;;;;;;;7.18;3.50;;;;;;;;;;5043353;28;20212;-66
2021/01/30 08:26:28;;;;;;;5.05;3.38;;;;;;;;;;5053246;28;20200;-65
2021/01/30 08:29:07;;;;;;;6.60;3.40;;;;;;;;;;5054011;28;20218;-65
2021/01/30 08:31:34;;;;;;;3.30;2.50;;;;;;;;;;5053495;28;20693;-67
2021/01/30 08:34:00;;;;;;;6.20;3.35;;;;;;;;;;5053305;28;20200;-64
2021/01/30 08:36:31;;;;;;;6.30;3.22;;;;;;;;;;5050631;28;20228;-67
2021/01/30 08:39:03;;;;;;;6.43;2.70;;;;;;;;;;5051410;28;20614;-62
2021/01/30 08:41:38;;;;;;;6.95;3.47;;;;;;;;;;5050945;28;20204;-61
2021/01/30 08:44:04;;;;;;;6.28;4.63;;;;;;;;;;5051222;28;20207;-64
2021/01/30 08:46:39;;;;;;;5.68;3.47;;;;;;;;;;5050655;28;20195;-65
2021/01/30 08:49:05;;;;;;;7.07;4.40;;;;;;;;;;5051184;28;20200;-65
2021/01/30 08:51:32;;;;;;;7.22;4.68;;;;;;;;;;5050786;28;20198;-60
2021/01/30 08:54:18;;;;;;;7.38;5.30;;;;;;;;;;5051007;28;20258;-64
2021/01/30 08:56:51;;;;;;;9.90;5.45;;;;;;;;;;5050524;28;20502;-67
2021/01/30 08:59:36;;;;;;;9.77;6.40;;;;;;;;;;5050628;28;20305;-62
2021/01/30 09:02:02;;;;;;;10.77;6.40;;;;;;;;;;5033046;28;20683;-63
2021/01/30 09:04:39;;;;;;;12.05;8.55;;;;;;;;;;5028904;28;20201;-65
2021/01/30 09:07:05;;;;;;;64.90;41.88;;;;;;;;;;5030741;28;20181;-67
2021/01/30 09:09:32;;;;;;;8.98;5.93;;;;;;;;;;5029997;28;20251;-63
2021/01/30 09:12:02;;;;;;;8.93;6.20;;;;;;;;;;5030837;28;20190;-68
2021/01/30 09:14:28;;;;;;;33.15;13.23;;;;;;;;;;5030334;28;20543;-66
2021/01/30 09:16:56;;;;;;;8.15;5.22;;;;;;;;;;5031119;28;20193;-60
2021/01/30 09:19:41;;;;;;;8.38;5.30;;;;;;;;;;5030059;28;20208;-63
2021/01/30 09:22:26;;;;;;;8.98;4.53;;;;;;;;;;5031143;28;20205;-62
2021/01/30 09:24:58;;;;;;;8.73;4.95;;;;;;;;;;5030381;28;20181;-61
2021/01/30 09:27:32;;;;;;;7.57;4.72;;;;;;;;;;5032132;28;20212;-64
2021/01/30 09:30:24;;;;;;;8.82;4.43;;;;;;;;;;5031230;28;20197;-63
2021/01/30 09:32:51;;;;;;;6.55;3.70;;;;;;;;;;5030170;28;20219;-68
2021/01/30 09:35:35;;;;;;;7.25;4.22;;;;;;;;;;5030279;28;20564;-63
2021/01/30 09:38:23;;;;;;;17.58;10.75;;;;;;;;;;5030638;28;20193;-68
2021/01/30 09:40:50;;;;;;;6.95;4.80;;;;;;;;;;5030289;28;20200;-61
2021/01/30 09:43:20;;;;;;;8.15;5.55;;;;;;;;;;5030528;28;20256;-61
2021/01/30 09:45:49;;;;;;;8.57;5.25;;;;;;;;;;5029915;28;20205;-62
2021/01/30 09:48:16;;;;;;;11.63;6.10;;;;;;;;;;5030675;28;20205;-62
2021/01/30 09:51:08;;;;;;;9.98;6.57;;;;;;;;;;5029125;28;20197;-63
2021/01/30 09:53:48;;;;;;;9.32;6.75;;;;;;;;;;5029607;28;20220;-63
2021/01/30 09:56:16;;;;;;;9.73;5.95;;;;;;;;;;5029663;28;20212;-63
2021/01/30 09:58:44;;;;;;;148.60;67.32;;;;;;;;;;5029613;28;20707;-61
2021/01/30 10:01:33;;;;;;;10.35;7.25;;;;;;;;;;5029457;28;20200;-61
2021/01/30 10:04:12;;;;;;;8.60;5.88;;;;;;;;;;5028929;28;20271;-61
2021/01/30 10:06:38;;;;;;;9.98;6.22;;;;;;;;;;5029662;28;20193;-71
2021/01/30 10:09:16;;;;;;;9.63;5.90;;;;;;;;;;5029877;28;20266;-62
2021/01/30 10:11:43;;;;;;;8.82;5.97;;;;;;;;;;5029193;28;20204;-62
2021/01/30 10:14:10;;;;;;;7.80;5.65;;;;;;;;;;5029557;28;20204;-64
2021/01/30 10:16:36;;;;;;;14.48;12.20;;;;;;;;;;5029517;28;20268;-69
2021/01/30 10:19:06;;;;;;;94.88;67.43;;;;;;;;;;5029335;28;20212;-64
2021/01/30 10:21:35;;;;;;;9.65;6.45;;;;;;;;;;5029013;28;20671;-63
2021/01/30 10:24:09;;;;;;;10.38;7.30;;;;;;;;;;5028060;28;20189;-65
2021/01/30 10:26:35;;;;;;;12.13;8.02;;;;;;;;;;5029536;28;20208;-63
2021/01/30 10:29:05;;;;;;;10.15;7.55;;;;;;;;;;5029449;28;20275;-67
2021/01/30 10:31:52;;;;;;;8.40;6.57;;;;;;;;;;5029538;28;20204;-65
2021/01/30 10:34:25;;;;;;;8.77;6.13;;;;;;;;;;5029191;28;20187;-64
2021/01/30 10:37:14;;;;;;;8.00;5.68;;;;;;;;;;5029585;28;20311;-65
2021/01/30 10:39:47;;;;;;;6.53;4.95;;;;;;;;;;5028597;28;20655;-64
2021/01/30 10:42:16;;;;;;;6.10;4.75;;;;;;;;;;5029369;28;20260;-61
2021/01/30 10:44:46;;;;;;;8.00;5.40;;;;;;;;;;5028687;28;20209;-64
2021/01/30 10:47:13;;;;;;;210.30;83.73;;;;;;;;;;5029653;28;20239;-67
2021/01/30 10:49:40;;;;;;;12.00;7.32;;;;;;;;;;5028534;28;20468;-63
2021/01/30 10:52:09;;;;;;;6.25;5.13;;;;;;;;;;5029206;28;20197;-66
2021/01/30 10:54:36;;;;;;;7.35;5.15;;;;;;;;;;5029072;28;20205;-63
2021/01/30 10:57:05;;;;;;;6.47;5.20;;;;;;;;;;5029558;28;20292;-63
2021/01/30 10:59:40;;;;;;;7.38;5.97;;;;;;;;;;5031253;28;20236;-65
2021/01/30 11:02:36;;;;;;;6.90;5.63;;;;;;;;;;5029274;28;20205;-67
2021/01/30 11:05:10;;;;;;;8.48;6.10;;;;;;;;;;5028023;28;20667;-68
2021/01/30 11:07:44;;;;;;;8.85;6.30;;;;;;;;;;5028955;28;20282;-67
2021/01/30 11:10:21;;;;;;;8.07;6.32;;;;;;;;;;5028363;28;20232;-65
2021/01/30 11:12:47;;;;;;;7.22;5.78;;;;;;;;;;5028904;28;20209;-64
2021/01/30 11:15:17;;;;;;;7.38;5.90;;;;;;;;;;5028767;28;20200;-65
2021/01/30 11:17:43;;;;;;;8.67;6.10;;;;;;;;;;5028922;28;20201;-64
2021/01/30 11:33:17;;;;;;;9.82;6.97;;;;;;;7.76;63.84;93751.31;5088494;27;20542;-65
2021/01/30 11:35:45;;;;;;;23.50;14.60;;;;;;;7.41;63.37;93738.38;5067003;28;20203;-67
2021/01/30 11:38:24;;;;;;;18.30;11.13;;;;;;;8.51;62.64;93748.41;5066827;28;20199;-69
2021/01/30 11:40:53;;;;;;;9.80;7.15;;;;;;;8.62;61.26;93739.47;5067444;28;20208;-66
2021/01/30 11:43:20;;;;;;;10.07;6.45;;;;;;;8.72;60.34;93746.47;5066465;28;20195;-67
2021/01/30 11:45:47;;;;;;;10.13;6.90;;;;;;;8.95;58.74;93736.13;5066967;28;20196;-67
2021/01/30 11:48:16;;;;;;;7.23;5.67;;;;;;;8.75;58.54;93740.69;5066717;28;20238;-62
2021/01/30 11:50:44;;;;;;;30.27;22.57;;;;;;;8.66;59.06;93724.84;5066408;28;20449;-77
2021/01/30 11:53:18;;;;;;;61.37;47.43;;;;;;;9.26;57.40;93751.53;5067701;28;20472;-73
2021/01/30 11:55:47;;;;;;;9.03;5.90;;;;;;;9.67;55.91;93722.13;5066965;28;20463;-70
2021/01/30 11:58:15;;;;;;;7.67;5.20;;;;;;;9.48;56.44;93749.25;5082263;28;20438;-72
2021/01/30 12:00:41;;;;;;;6.03;5.30;;;;;;;9.68;56.11;93743.81;5066465;28;20431;-67
2021/01/30 12:03:23;;;;;;;6.07;4.87;;;;;;;10.07;53.94;93731.38;5066488;28;20453;-71
2021/01/30 12:05:51;;;;;;;11.03;4.67;;;;;;;10.08;53.35;93740.78;5066800;28;21013;-71
2021/01/30 12:08:18;;;;;;;7.00;5.30;;;;;;;10.16;53.87;93768.97;5066577;28;20531;-69
2021/01/30 12:10:49;;;;;;;7.20;4.77;;;;;;;10.42;53.00;93757.13;5066335;28;20414;-71
2021/01/30 12:13:15;;;;;;;7.53;5.50;;;;;;;10.86;52.38;93757.56;5066713;28;20760;-67
2021/01/30 12:15:41;;;;;;;7.97;5.87;;;;;;;11.39;51.56;93757.28;5068625;28;20426;-77
2021/01/30 12:18:14;;;;;;;8.07;6.20;;;;;;;12.24;48.77;93747.91;5075764;28;20536;-68
2021/01/30 12:20:44;;;;;;;55.73;27.77;;;;;;;12.38;49.41;93753.94;5074284;28;21317;-75
2021/01/30 12:23:12;;;;;;;8.03;6.33;;;;;;;12.33;47.92;93748.78;5074358;28;20442;-65
2021/01/30 12:25:38;;;;;;;7.30;5.70;;;;;;;12.73;47.20;93728.75;5077607;28;20449;-71
2021/01/30 12:28:06;;;;;;;9.03;6.50;;;;;;;13.35;45.94;93745.50;5081774;28;20441;-72
2021/01/30 12:30:36;;;;;;;8.17;6.37;;;;;;;13.18;46.14;93746.16;5075949;28;20440;-71
2021/01/30 12:33:04;;;;;;;8.63;6.07;;;;;;;13.75;45.41;93765.56;5084160;28;20489;-74
2021/01/30 12:35:33;;;;;;;9.30;6.83;;;;;;;13.69;44.90;93772.81;5074828;28;20453;-72
2021/01/30 12:38:01;;;;;;;7.53;5.90;;;;;;;14.19;44.37;93778.63;5075711;28;20978;-70
2021/01/30 12:40:32;;;;;;;9.53;6.70;;;;;;;13.82;45.67;93790.38;5075447;28;20422;-71
2021/01/30 12:43:00;;;;;;;51.40;39.73;;;;;;;13.52;44.71;93771.94;5069327;28;20482;-68
2021/01/30 12:45:27;;;;;;;7.83;6.10;;;;;;;13.97;44.26;93762.88;5064785;28;20444;-72
2021/01/30 12:47:54;;;;;;;8.40;6.00;;;;;;;14.87;42.49;93760.38;5063135;28;20434;-69
2021/01/30 12:50:24;;;;;;;7.00;5.20;;;;;;;14.68;42.44;93770.44;5064860;28;20445;-68
2021/01/30 12:52:50;;;;;;;7.70;5.27;;;;;;;14.78;41.64;93783.31;5071896;28;20482;-70
2021/01/30 12:55:17;;;;;;;5.90;4.87;;;;;;;13.12;44.57;93800.72;5072418;28;20434;-73
2021/01/30 12:57:44;;;;;;;7.73;5.67;;;;;;;14.07;42.95;93797.63;5072087;28;20434;-75
2021/01/30 13:00:14;;;;;;;8.40;5.07;;;;;;;12.95;44.31;93797.94;5072169;28;20438;-67
2021/01/30 13:02:41;;;;;;;6.77;5.07;;;;;;;10.61;48.82;93810.31;5087442;28;20822;-65
2021/01/30 13:05:10;;;;;;;6.93;5.80;;;;;;;9.71;52.01;93827.75;5073328;28;20449;-67
2021/01/30 13:07:37;;;;;;;16.27;12.80;;;;;;;9.49;53.49;93824.78;5072488;28;20430;-66
2021/01/30 13:10:09;;;;;;;7.67;6.00;;;;;;;9.09;54.46;93833.72;5088676;28;20445;-67
2021/01/30 13:12:37;;;;;;;9.40;6.13;;;;;;;8.95;55.34;93829.38;5071458;28;20484;-68
2021/01/30 13:15:05;;;;;;;7.73;6.20;;;;;;;9.76;53.68;93834.78;5071886;28;20621;-68
2021/01/30 13:17:31;;;;;;;8.40;6.20;;;;;;;10.48;51.75;93826.72;5071567;28;20434;-65
2021/01/30 13:19:58;;;;;;;8.20;5.60;;;;;;;10.04;52.02;93828.75;5072035;28;20495;-68
2021/01/30 13:22:26;;;;;;;9.73;6.27;;;;;;;11.65;51.24;93824.84;5071613;28;20434;-67
2021/01/30 13:24:53;;;;;;;7.10;5.20;;;;;;;13.08;45.75;93804.25;5072015;28;20467;-66
2021/01/30 13:27:19;;;;;;;7.60;5.50;;;;;;;13.79;44.27;93808.63;5071019;28;20433;-66
2021/01/30 13:29:47;;;;;;;6.87;5.67;;;;;;;14.55;41.94;93804.81;5071815;28;20442;-66
2021/01/30 13:32:15;;;;;;;7.37;5.90;;;;;;;16.00;38.82;93796.97;5069557;28;20494;-67
2021/01/30 13:34:43;;;;;;;7.50;5.97;;;;;;;15.92;39.58;93810.97;5071749;28;20831;-68
2021/01/30 13:37:26;;;;;;;10.43;6.10;;;;;;;16.59;39.03;93790.72;5071138;28;20818;-70
2021/01/30 13:39:53;;;;;;;7.03;5.80;;;;;;;17.29;36.23;93783.88;5071604;28;20952;-66
2021/01/30 13:42:22;;;;;;;8.80;5.50;;;;;;;15.73;37.59;93802.63;5070680;28;21015;-66
2021/01/30 13:44:48;;;;;;;59.57;43.10;;;;;;;15.77;38.50;93787.69;5071104;28;20434;-67
2021/01/30 13:47:15;;;;;;;33.37;24.43;;;;;;;15.16;38.51;93804.63;5070594;28;20537;-66
2021/01/30 13:49:41;;;;;;;6.50;5.67;;;;;;;15.93;37.63;93791.41;5071569;28;20442;-65
2021/01/30 13:52:08;;;;;;;6.43;5.50;;;;;;;16.02;38.08;93795.56;5070772;28;20571;-63
2021/01/30 13:54:34;;;;;;;6.97;5.73;;;;;;;15.70;38.46;93793.47;5070521;28;20453;-65
2021/01/30 13:57:01;;;;;;;6.80;5.60;;;;;;;15.43;38.17;93798.28;5070783;28;20848;-66
2021/01/30 13:59:27;;;;;;;92.63;43.90;;;;;;;16.73;36.66;93788.59;5071074;28;20446;-63
2021/01/30 14:01:53;;;;;;;7.47;6.47;;;;;;;16.12;37.09;93799.75;5070949;28;20831;-65
2021/01/30 14:04:20;;;;;;;6.00;4.80;;;;;;;15.74;37.16;93798.91;5071631;28;20438;-64
2021/01/30 14:06:46;;;;;;;8.80;5.37;;;;;;;15.88;37.97;93789.69;5070677;28;20418;-66
2021/01/30 14:09:13;;;;;;;7.10;5.40;;;;;;;15.88;37.19;93794.19;5070959;28;20477;-63
2021/01/30 14:11:39;;;;;;;7.37;5.33;;;;;;;16.12;36.56;93799.75;5070795;28;20458;-65
2021/01/30 14:14:05;;;;;;;7.20;5.23;;;;;;;15.66;37.96;93797.81;5070523;28;20442;-64
2021/01/30 14:16:31;;;;;;;5.73;5.10;;;;;;;15.25;38.14;93803.53;5069910;28;20438;-64